Jefferson Park, New York
Current Conditions -  °F | °C
As of 2:56 AM on Sunday 26 Oct 2014 (Local Time) from KART Reporting Station
Overcast Overcast  
Wind Chill: 52°   Ceiling: 4700
Heat Index: 52°   Visibility: 10mi
Dew Point: 36°   Wind: 18mph
Humidity: 54%   Direction: 280°W
Pressure: 29.52"   Gusts: NA
Location:  43.8534°N, 76.251°W
Report Text: KART 260656Z AUTO 28016KT 10SM BKN047 OVC055 11/02 A2952 RMK AO2 SLP994 T01110022
Loading
Personal Weather Stations






























Interactive Weather Map New forecast layout! Learn more

10-Day Weather Forecast

Advertisements
Track Severe Weather on mobile